createdAt,value
2024-03-16T00:01:02.046Z,9.46
2024-03-16T00:03:30.580Z,9.46
2024-03-16T00:05:58.548Z,9.49
2024-03-16T00:08:26.351Z,9.42
2024-03-16T00:10:54.169Z,9.34
2024-03-16T00:13:21.985Z,9.33
2024-03-16T00:15:50.442Z,9.28
2024-03-16T00:18:18.377Z,9.26
2024-03-16T00:20:46.183Z,9.23
2024-03-16T00:23:14.016Z,9.22
2024-03-16T00:25:41.797Z,9.19
2024-03-16T00:28:09.726Z,9.18
2024-03-16T00:30:37.524Z,9.19
2024-03-16T00:33:05.972Z,9.15
2024-03-16T00:35:33.788Z,9.12
2024-03-16T00:38:01.585Z,9.12
2024-03-16T00:40:29.368Z,9.15
2024-03-16T00:42:57.264Z,9.19
2024-03-16T00:45:25.296Z,9.17
2024-03-16T00:47:53.240Z,9.21
2024-03-16T00:50:21.025Z,9.23
2024-03-16T00:52:48.820Z,9.18
2024-03-16T00:55:16.689Z,9.18
2024-03-16T00:57:44.579Z,9.20
2024-03-16T01:00:15.696Z,9.17
2024-03-16T01:02:43.574Z,9.15
2024-03-16T01:05:12.626Z,9.12
2024-03-16T01:07:40.442Z,9.11
2024-03-16T01:10:09.066Z,9.07
2024-03-16T01:12:37.112Z,9.05
2024-03-16T01:15:05.341Z,9.02
2024-03-16T01:17:33.211Z,9.01
2024-03-16T01:20:01.366Z,8.87
2024-03-16T01:22:29.176Z,8.87
2024-03-16T01:24:57.119Z,8.84
2024-03-16T01:27:25.006Z,8.75
2024-03-16T01:29:52.795Z,8.63
2024-03-16T01:32:20.631Z,8.58
2024-03-16T01:34:48.436Z,8.50
2024-03-16T01:37:17.379Z,8.48
2024-03-16T01:39:45.957Z,8.48
2024-03-16T01:42:14.074Z,8.37
2024-03-16T01:44:41.911Z,8.37
2024-03-16T01:47:10.052Z,8.22
2024-03-16T01:49:37.989Z,8.21
2024-03-16T01:52:06.731Z,8.17
2024-03-16T01:54:34.629Z,8.09
2024-03-16T01:57:02.444Z,8.08
2024-03-16T01:59:30.286Z,7.97
2024-03-16T02:01:58.203Z,7.94
2024-03-16T02:04:25.998Z,7.87
2024-03-16T02:06:54.005Z,7.68
2024-03-16T02:09:22.348Z,7.67
2024-03-16T02:11:50.984Z,7.59
2024-03-16T02:14:18.868Z,7.62
2024-03-16T02:16:45.854Z,7.53
2024-03-16T02:19:13.616Z,7.37
2024-03-16T02:21:41.430Z,7.40
2024-03-16T02:24:10.001Z,7.40
2024-03-16T02:26:37.855Z,7.35
2024-03-16T02:29:06.258Z,7.25
2024-03-16T02:31:37.899Z,7.21
2024-03-16T02:34:08.515Z,7.17
2024-03-16T02:36:36.451Z,7.17
2024-03-16T02:39:04.364Z,7.12
2024-03-16T02:41:32.673Z,7.17
2024-03-16T02:44:00.514Z,7.13
2024-03-16T02:46:28.376Z,7.14
2024-03-16T02:48:56.775Z,7.10
2024-03-16T02:51:24.730Z,7.13
2024-03-16T02:53:52.750Z,7.12
2024-03-16T02:56:21.030Z,7.06
2024-03-16T02:58:48.840Z,7.08
2024-03-16T03:01:17.667Z,6.95
2024-03-16T03:03:45.710Z,7.00
2024-03-16T03:06:13.772Z,7.03
2024-03-16T03:08:41.547Z,7.03
2024-03-16T03:11:09.996Z,6.92
2024-03-16T03:13:37.879Z,6.94
2024-03-16T03:16:06.020Z,6.82
2024-03-16T03:18:33.817Z,6.82
2024-03-16T03:21:01.754Z,6.81
2024-03-16T03:23:29.783Z,6.81
2024-03-16T03:25:57.748Z,6.78
2024-03-16T03:28:25.581Z,6.76
2024-03-16T03:30:54.706Z,6.68
2024-03-16T03:33:22.629Z,6.67
2024-03-16T03:35:50.423Z,6.65
2024-03-16T03:38:18.202Z,6.66
2024-03-16T03:40:46.011Z,6.68
2024-03-16T03:43:20.655Z,6.66
2024-03-16T03:45:52.267Z,6.68
2024-03-16T03:48:42.261Z,6.68
2024-03-16T03:51:10.268Z,6.70
2024-03-16T03:53:38.062Z,6.74
2024-03-16T03:56:06.012Z,6.71
2024-03-16T03:58:33.872Z,6.66
2024-03-16T04:01:02.040Z,6.66
2024-03-16T04:03:29.965Z,6.67
2024-03-16T04:05:57.874Z,6.70
2024-03-16T04:08:25.678Z,6.69
2024-03-16T04:10:53.500Z,6.66
2024-03-16T04:13:21.309Z,6.67
2024-03-16T04:15:50.471Z,6.65
2024-03-16T04:18:17.346Z,6.64
2024-03-16T04:20:45.152Z,6.65
2024-03-16T04:23:13.621Z,6.64
2024-03-16T04:25:41.410Z,6.70
2024-03-16T04:28:10.723Z,6.71
2024-03-16T04:30:38.569Z,6.73
2024-03-16T04:33:08.374Z,6.74
2024-03-16T04:35:36.237Z,6.76
2024-03-16T04:38:04.084Z,6.79
2024-03-16T04:40:32.024Z,6.79
2024-03-16T04:42:59.892Z,6.82
2024-03-16T04:45:27.979Z,6.85
2024-03-16T04:47:55.927Z,6.90
2024-03-16T04:50:25.271Z,6.93
2024-03-16T04:52:53.102Z,6.96
2024-03-16T04:55:20.962Z,7.00
2024-03-16T04:57:48.856Z,7.01
2024-03-16T05:00:16.842Z,7.03
2024-03-16T05:02:44.655Z,7.05
2024-03-16T05:05:12.454Z,7.04
2024-03-16T05:07:40.291Z,7.09
2024-03-16T05:10:09.951Z,7.09
2024-03-16T05:12:38.138Z,7.12
2024-03-16T05:15:06.731Z,7.14
2024-03-16T05:17:34.810Z,7.17
2024-03-16T05:20:02.696Z,7.14
2024-03-16T05:22:31.114Z,7.15
2024-03-16T05:24:58.948Z,7.14
2024-03-16T05:27:28.476Z,7.10
2024-03-16T05:29:57.049Z,7.07
2024-03-16T05:32:25.323Z,7.07
2024-03-16T05:34:53.236Z,7.08
2024-03-16T05:37:21.046Z,7.09
2024-03-16T05:39:49.363Z,7.09
2024-03-16T05:42:17.193Z,7.05
2024-03-16T05:44:45.015Z,7.03
2024-03-16T05:47:12.917Z,7.05
2024-03-16T05:49:41.404Z,7.09
2024-03-16T05:52:09.298Z,7.07
2024-03-16T05:54:37.092Z,7.10
2024-03-16T05:57:05.042Z,7.08
2024-03-16T05:59:34.656Z,7.11
2024-03-16T06:02:02.690Z,7.11
2024-03-16T06:04:30.561Z,7.14
2024-03-16T06:06:58.397Z,7.16
2024-03-16T06:09:26.190Z,7.13
2024-03-16T06:11:54.067Z,7.15
2024-03-16T06:14:21.863Z,7.17
2024-03-16T06:16:49.700Z,7.16
2024-03-16T06:19:17.620Z,7.18
2024-03-16T06:21:46.691Z,7.17
2024-03-16T06:24:14.957Z,7.20
2024-03-16T06:26:49.906Z,7.36
2024-03-16T06:29:19.277Z,7.57
2024-03-16T06:31:57.345Z,7.77
2024-03-16T06:34:26.237Z,7.98
2024-03-16T06:36:54.562Z,8.13
2024-03-16T06:39:22.943Z,8.29
2024-03-16T06:41:50.988Z,8.43
2024-03-16T06:44:19.015Z,8.59
2024-03-16T06:46:46.860Z,8.77
2024-03-16T06:49:17.512Z,8.93
2024-03-16T06:51:45.473Z,9.08
2024-03-16T06:54:14.115Z,9.23
2024-03-16T06:56:41.936Z,9.37
2024-03-16T06:59:09.728Z,9.48
2024-03-16T07:01:37.615Z,9.67
2024-03-16T07:04:05.559Z,9.75
2024-03-16T07:06:33.411Z,9.76
2024-03-16T07:09:04.221Z,9.72
2024-03-16T07:11:32.112Z,9.70
2024-03-16T07:14:00.020Z,9.62
2024-03-16T07:16:27.874Z,9.59
2024-03-16T07:18:55.698Z,9.65
2024-03-16T07:21:25.710Z,9.69
2024-03-16T07:23:55.145Z,9.67
2024-03-16T07:26:22.979Z,9.72
2024-03-16T07:28:51.133Z,9.71
2024-03-16T07:31:19.006Z,9.75
2024-03-16T07:33:46.960Z,9.79
2024-03-16T07:36:14.806Z,9.98
2024-03-16T07:38:42.595Z,10.16
2024-03-16T07:41:10.398Z,10.38
2024-03-16T07:43:38.194Z,10.47
2024-03-16T07:46:06.220Z,10.77
2024-03-16T07:48:34.085Z,11.04
2024-03-16T07:51:02.191Z,11.24
2024-03-16T07:53:30.288Z,11.33
2024-03-16T07:55:59.325Z,11.20
2024-03-16T07:58:27.861Z,11.15
2024-03-16T08:00:55.788Z,11.08
2024-03-16T08:03:23.607Z,10.99
2024-03-16T08:05:51.486Z,10.96
2024-03-16T08:08:19.305Z,10.97
2024-03-16T08:10:47.118Z,10.91
2024-03-16T08:13:15.025Z,10.98
2024-03-16T08:15:43.127Z,10.96
2024-03-16T08:18:12.400Z,10.88
2024-03-16T08:20:40.377Z,10.86
2024-03-16T08:23:08.158Z,11.02
2024-03-16T08:25:35.953Z,11.14
2024-03-16T08:28:04.007Z,11.26
2024-03-16T08:30:32.075Z,11.35
2024-03-16T08:32:59.943Z,11.41
2024-03-16T08:35:27.793Z,11.48
2024-03-16T08:37:55.598Z,11.48
2024-03-16T08:40:23.484Z,11.47
2024-03-16T08:42:52.755Z,11.61
2024-03-16T08:45:20.688Z,11.63
2024-03-16T08:47:48.532Z,11.65
2024-03-16T08:50:16.414Z,11.78
2024-03-16T08:52:44.585Z,11.80
2024-03-16T08:55:14.685Z,11.65
2024-03-16T08:57:43.126Z,11.61
2024-03-16T09:00:14.701Z,11.58
2024-03-16T09:02:42.545Z,11.62
2024-03-16T09:05:10.410Z,11.70
2024-03-16T09:07:39.564Z,11.72
2024-03-16T09:10:08.523Z,11.75
2024-03-16T09:12:36.848Z,11.75
2024-03-16T09:15:06.518Z,11.80
2024-03-16T09:17:35.122Z,11.67
2024-03-16T09:20:08.385Z,11.47
2024-03-16T09:22:37.643Z,11.56
2024-03-16T09:25:07.246Z,11.50
2024-03-16T09:27:35.587Z,11.43
2024-03-16T09:30:05.749Z,11.54
2024-03-16T09:32:33.587Z,11.67
2024-03-16T09:35:01.431Z,11.66
2024-03-16T09:37:29.213Z,11.73
2024-03-16T09:39:57.074Z,11.79
2024-03-16T09:42:25.126Z,11.82
